createdAt,value
2022-08-26T00:00:12.662Z,0.00
2022-08-26T00:01:12.642Z,0.00
2022-08-26T00:02:12.820Z,0.00
2022-08-26T00:03:12.666Z,0.00
2022-08-26T00:04:12.780Z,0.00
2022-08-26T00:05:12.620Z,0.00
2022-08-26T00:06:12.621Z,0.00
2022-08-26T00:07:12.618Z,0.00
2022-08-26T00:08:13.100Z,0.00
2022-08-26T00:09:12.641Z,0.00
2022-08-26T00:10:12.610Z,0.00
2022-08-26T00:11:12.582Z,0.00
2022-08-26T00:12:12.671Z,0.00
2022-08-26T00:13:12.568Z,0.00
2022-08-26T00:14:12.579Z,0.00
2022-08-26T00:15:12.569Z,0.00
2022-08-26T00:16:12.622Z,0.00
2022-08-26T00:17:12.568Z,0.00
2022-08-26T00:18:21.763Z,0.00
2022-08-26T00:19:12.543Z,0.00
2022-08-26T00:20:12.567Z,0.00
2022-08-26T00:21:12.523Z,0.00
2022-08-26T00:22:12.521Z,0.00
2022-08-26T00:23:13.529Z,0.00
2022-08-26T00:24:12.514Z,0.00
2022-08-26T00:25:12.544Z,0.00
2022-08-26T00:26:12.552Z,0.00
2022-08-26T00:27:12.497Z,0.00
2022-08-26T00:28:12.530Z,0.00
2022-08-26T00:29:12.557Z,0.00
2022-08-26T00:30:12.484Z,0.00
2022-08-26T00:31:12.518Z,0.00
2022-08-26T00:32:12.468Z,0.00
2022-08-26T00:33:12.467Z,0.00
2022-08-26T00:34:12.463Z,0.00
2022-08-26T00:35:12.447Z,0.00
2022-08-26T00:36:14.422Z,0.00
2022-08-26T00:37:16.138Z,0.00
2022-08-26T00:38:13.433Z,0.00
2022-08-26T00:39:12.442Z,0.00
2022-08-26T00:40:12.465Z,0.00
2022-08-26T00:41:12.485Z,0.00
2022-08-26T00:42:12.418Z,0.00
2022-08-26T00:43:12.426Z,0.00
2022-08-26T00:44:12.414Z,0.00
2022-08-26T00:45:12.410Z,0.00
2022-08-26T00:46:13.365Z,0.00
2022-08-26T00:47:12.457Z,0.00
2022-08-26T00:48:12.393Z,0.00
2022-08-26T00:49:12.541Z,0.00
2022-08-26T00:50:12.385Z,0.00
2022-08-26T00:51:12.458Z,0.00
2022-08-26T00:52:13.181Z,0.00
2022-08-26T00:53:12.366Z,0.00
2022-08-26T00:54:12.358Z,0.00
2022-08-26T00:55:12.337Z,0.00
2022-08-26T00:56:12.355Z,0.00
2022-08-26T00:57:16.401Z,0.00
2022-08-26T00:58:12.326Z,0.00
2022-08-26T00:59:12.333Z,0.00
2022-08-26T01:00:12.315Z,0.00
2022-08-26T01:01:12.323Z,0.00
2022-08-26T01:02:20.712Z,0.00
2022-08-26T01:03:13.321Z,0.00
2022-08-26T01:04:12.287Z,0.00
2022-08-26T01:05:12.290Z,0.00
2022-08-26T01:06:13.065Z,0.00
2022-08-26T01:07:12.286Z,0.00
2022-08-26T01:08:12.300Z,0.00
2022-08-26T01:09:12.270Z,0.00
2022-08-26T01:10:12.257Z,0.00
2022-08-26T01:11:12.257Z,0.00
2022-08-26T01:12:12.249Z,0.00
2022-08-26T01:13:12.261Z,0.00
2022-08-26T01:14:12.825Z,0.00
2022-08-26T01:15:12.631Z,0.00
2022-08-26T01:16:12.237Z,0.00
2022-08-26T01:17:12.218Z,0.00
2022-08-26T01:18:12.238Z,0.00
2022-08-26T01:19:12.236Z,0.00
2022-08-26T01:20:12.215Z,0.00
2022-08-26T01:21:12.209Z,0.00
2022-08-26T01:22:12.195Z,0.00
2022-08-26T01:23:12.206Z,0.00
2022-08-26T01:24:12.197Z,0.00
2022-08-26T01:25:12.205Z,0.00
2022-08-26T01:26:19.435Z,0.00
2022-08-26T01:27:13.162Z,0.00
2022-08-26T01:28:12.148Z,0.00
2022-08-26T01:29:12.165Z,0.00
2022-08-26T01:30:12.155Z,0.00
2022-08-26T01:31:12.187Z,0.00
2022-08-26T01:32:12.138Z,0.00
2022-08-26T01:33:12.136Z,0.00
2022-08-26T01:34:12.160Z,0.00
2022-08-26T01:35:12.118Z,0.00
2022-08-26T01:36:12.136Z,0.00
2022-08-26T01:37:15.491Z,0.00
2022-08-26T01:38:12.114Z,0.00
2022-08-26T01:39:12.092Z,0.00
2022-08-26T01:40:12.162Z,0.00
2022-08-26T01:41:19.522Z,0.00
2022-08-26T01:42:12.086Z,0.00
2022-08-26T01:43:12.794Z,0.00
2022-08-26T01:44:12.055Z,0.00
2022-08-26T01:45:12.093Z,0.00
2022-08-26T01:46:12.120Z,0.00
2022-08-26T01:47:12.187Z,0.00
2022-08-26T01:48:12.043Z,0.00
2022-08-26T01:49:12.039Z,0.00
2022-08-26T01:50:13.013Z,0.00
2022-08-26T01:51:12.014Z,0.00
2022-08-26T01:52:12.054Z,0.00
2022-08-26T01:53:12.226Z,0.00
2022-08-26T01:54:13.785Z,0.00
2022-08-26T01:55:12.077Z,0.00
2022-08-26T01:56:12.002Z,0.00
2022-08-26T01:57:12.002Z,0.00
2022-08-26T01:58:11.990Z,0.00
2022-08-26T01:59:12.255Z,0.00
2022-08-26T02:00:11.969Z,0.00
2022-08-26T02:01:11.987Z,0.00
2022-08-26T02:02:11.940Z,0.00
2022-08-26T02:03:12.060Z,0.00
2022-08-26T02:04:11.962Z,0.00
2022-08-26T02:05:11.922Z,0.00
2022-08-26T02:06:11.934Z,0.00
2022-08-26T02:07:12.924Z,0.00
2022-08-26T02:08:11.932Z,0.00
2022-08-26T02:09:11.933Z,0.00
2022-08-26T02:10:11.914Z,0.00
2022-08-26T02:11:11.902Z,0.00
2022-08-26T02:12:11.897Z,0.00
2022-08-26T02:13:11.894Z,0.00
2022-08-26T02:14:11.900Z,0.00
2022-08-26T02:15:12.877Z,0.00
2022-08-26T02:16:11.935Z,0.00
2022-08-26T02:17:11.872Z,0.00
2022-08-26T02:18:14.016Z,0.00
2022-08-26T02:19:11.853Z,0.00
2022-08-26T02:20:13.321Z,0.00
2022-08-26T02:21:11.857Z,0.00
2022-08-26T02:22:11.839Z,0.00
2022-08-26T02:23:11.825Z,0.00
2022-08-26T02:24:11.834Z,0.00
2022-08-26T02:25:11.844Z,0.00
2022-08-26T02:26:11.822Z,0.00
2022-08-26T02:27:11.822Z,0.00
2022-08-26T02:28:11.815Z,0.00
2022-08-26T02:29:11.807Z,0.00
2022-08-26T02:30:11.793Z,0.00
2022-08-26T02:31:11.872Z,0.00
2022-08-26T02:32:11.780Z,0.00
2022-08-26T02:33:11.779Z,0.00
2022-08-26T02:34:11.783Z,0.00
2022-08-26T02:35:11.780Z,0.00
2022-08-26T02:36:12.175Z,0.00
2022-08-26T02:37:11.745Z,0.00
2022-08-26T02:38:11.742Z,0.00
2022-08-26T02:39:11.738Z,0.00
2022-08-26T02:40:11.783Z,0.00
2022-08-26T02:41:11.726Z,0.00
2022-08-26T02:42:11.753Z,0.00
2022-08-26T02:43:11.707Z,0.00
2022-08-26T02:44:11.700Z,0.00
2022-08-26T02:45:11.703Z,0.00
2022-08-26T02:46:11.751Z,0.00
2022-08-26T02:47:12.872Z,0.00
2022-08-26T02:48:11.690Z,0.00
2022-08-26T02:49:11.676Z,0.00
2022-08-26T02:50:11.676Z,0.00
2022-08-26T02:51:11.661Z,0.00
2022-08-26T02:52:11.683Z,0.00
2022-08-26T02:53:11.779Z,0.00
2022-08-26T02:54:11.646Z,0.00
2022-08-26T02:55:11.642Z,0.00
2022-08-26T02:56:11.647Z,0.00
2022-08-26T02:57:11.689Z,0.00
2022-08-26T02:58:11.655Z,0.00
2022-08-26T02:59:11.624Z,0.00
2022-08-26T03:00:11.627Z,0.00
2022-08-26T03:01:11.680Z,0.00
2022-08-26T03:02:11.635Z,0.00
2022-08-26T03:03:11.611Z,0.00
2022-08-26T03:04:11.627Z,0.00
2022-08-26T03:05:11.593Z,0.00
2022-08-26T03:06:11.583Z,0.00
2022-08-26T03:07:11.593Z,0.00
2022-08-26T03:08:11.572Z,0.00
2022-08-26T03:09:15.975Z,0.00
2022-08-26T03:10:12.547Z,0.00
2022-08-26T03:11:11.562Z,0.00
2022-08-26T03:12:11.548Z,0.00
2022-08-26T03:13:11.584Z,0.00
2022-08-26T03:14:11.546Z,0.00
2022-08-26T03:15:17.423Z,0.00
2022-08-26T03:16:11.599Z,0.00
2022-08-26T03:17:11.528Z,0.00
2022-08-26T03:18:11.505Z,0.00
2022-08-26T03:19:11.505Z,0.00
2022-08-26T03:20:11.511Z,0.00
2022-08-26T03:21:11.501Z,0.00
2022-08-26T03:22:11.488Z,0.00
2022-08-26T03:23:11.493Z,0.00
2022-08-26T03:24:11.479Z,0.00
2022-08-26T03:25:11.487Z,0.00
2022-08-26T03:26:11.495Z,0.00
2022-08-26T03:27:11.503Z,0.00
2022-08-26T03:28:11.457Z,0.00
2022-08-26T03:29:11.431Z,0.00
2022-08-26T03:30:11.715Z,0.00
2022-08-26T03:31:11.503Z,0.00
2022-08-26T03:32:11.440Z,0.00
2022-08-26T03:33:11.402Z,0.00
2022-08-26T03:34:11.453Z,0.00
2022-08-26T03:35:11.415Z,0.00
2022-08-26T03:36:11.442Z,0.00
2022-08-26T03:37:11.439Z,0.00
2022-08-26T03:38:11.400Z,0.00
2022-08-26T03:39:11.399Z,0.00
2022-08-26T03:40:11.449Z,0.00
2022-08-26T03:41:11.386Z,0.00
2022-08-26T03:42:11.483Z,0.00
2022-08-26T03:43:11.386Z,0.00
2022-08-26T03:44:11.378Z,0.00
2022-08-26T03:45:11.353Z,0.00
2022-08-26T03:46:11.358Z,0.00
2022-08-26T03:47:11.348Z,0.00
2022-08-26T03:48:11.373Z,0.00
2022-08-26T03:49:11.361Z,0.00
2022-08-26T03:50:11.328Z,0.00
2022-08-26T03:51:11.327Z,0.00
2022-08-26T03:52:11.859Z,0.00
2022-08-26T03:53:12.844Z,4.00
2022-08-26T03:54:11.313Z,4.00
2022-08-26T03:55:11.293Z,0.00
2022-08-26T03:56:11.304Z,4.00
2022-08-26T03:57:11.294Z,4.00
2022-08-26T03:58:11.292Z,4.00
2022-08-26T03:59:11.290Z,0.00
2022-08-26T04:00:11.281Z,4.00
2022-08-26T04:01:11.266Z,4.00
2022-08-26T04:02:11.460Z,4.00
2022-08-26T04:03:14.721Z,8.00
2022-08-26T04:04:15.527Z,8.00
2022-08-26T04:05:11.250Z,12.00
2022-08-26T04:06:11.223Z,16.00
2022-08-26T04:07:11.240Z,16.00
2022-08-26T04:08:11.237Z,16.00
2022-08-26T04:09:11.217Z,16.00
2022-08-26T04:10:11.321Z,24.00
2022-08-26T04:11:11.209Z,24.00
2022-08-26T04:12:11.208Z,28.00
2022-08-26T04:13:11.180Z,36.00
2022-08-26T04:14:11.176Z,44.00
2022-08-26T04:15:11.285Z,44.00
2022-08-26T04:16:11.773Z,52.00
2022-08-26T04:17:11.167Z,60.00
2022-08-26T04:18:11.172Z,68.00
2022-08-26T04:19:11.169Z,80.00
2022-08-26T04:20:11.135Z,88.00
2022-08-26T04:21:11.166Z,100.00
2022-08-26T04:22:11.145Z,112.00
2022-08-26T04:23:11.133Z,124.00
2022-08-26T04:24:12.238Z,132.00
2022-08-26T04:25:12.117Z,148.00
2022-08-26T04:26:11.130Z,160.00
2022-08-26T04:27:11.109Z,172.00
2022-08-26T04:28:11.114Z,188.00
2022-08-26T04:29:11.089Z,200.00
2022-08-26T04:30:11.102Z,216.00
2022-08-26T04:31:11.100Z,220.00
2022-08-26T04:32:11.211Z,232.00
2022-08-26T04:33:13.029Z,248.00
2022-08-26T04:34:11.231Z,264.00
2022-08-26T04:35:11.064Z,284.00
2022-08-26T04:36:11.056Z,300.00
2022-08-26T04:37:11.094Z,320.00
2022-08-26T04:38:11.039Z,340.00
2022-08-26T04:39:11.031Z,360.00
2022-08-26T04:40:11.081Z,380.00
2022-08-26T04:41:15.437Z,404.00
2022-08-26T04:42:11.028Z,432.00
2022-08-26T04:43:11.033Z,452.00
2022-08-26T04:44:11.010Z,484.00
2022-08-26T04:45:11.709Z,508.00
2022-08-26T04:46:11.071Z,524.00
2022-08-26T04:47:10.995Z,540.00
2022-08-26T04:48:11.130Z,568.00
2022-08-26T04:49:10.980Z,604.00
2022-08-26T04:50:11.120Z,644.00
2022-08-26T04:51:10.979Z,680.00
2022-08-26T04:52:10.962Z,720.00
2022-08-26T04:53:11.982Z,772.00
2022-08-26T04:54:10.956Z,816.00
2022-08-26T04:55:10.968Z,848.00
2022-08-26T04:56:10.955Z,864.00
2022-08-26T04:57:10.943Z,876.00
2022-08-26T04:58:10.957Z,912.00
2022-08-26T04:59:16.918Z,956.00
2022-08-26T05:00:11.912Z,1016.00
2022-08-26T05:01:10.990Z,1072.00
2022-08-26T05:02:10.927Z,1120.00
2022-08-26T05:03:10.912Z,1148.00
2022-08-26T05:04:10.969Z,1164.00
2022-08-26T05:05:10.890Z,1176.00
2022-08-26T05:06:10.884Z,1200.00
2022-08-26T05:07:10.882Z,1228.00
2022-08-26T05:08:11.364Z,1268.00
2022-08-26T05:09:10.867Z,1320.00
2022-08-26T05:10:11.007Z,1380.00
2022-08-26T05:11:10.853Z,1440.00
2022-08-26T05:12:10.863Z,1500.00
2022-08-26T05:13:12.642Z,1556.00
2022-08-26T05:14:10.839Z,1608.00
2022-08-26T05:15:10.935Z,1652.00
2022-08-26T05:16:11.570Z,1692.00
2022-08-26T05:17:10.832Z,1696.00
2022-08-26T05:18:10.822Z,1652.00
2022-08-26T05:19:10.815Z,1596.00
2022-08-26T05:20:10.814Z,1556.00
2022-08-26T05:21:10.830Z,1524.00
2022-08-26T05:22:10.783Z,1508.00
2022-08-26T05:23:10.832Z,1508.00
2022-08-26T05:24:10.776Z,1516.00
2022-08-26T05:25:10.762Z,1544.00
2022-08-26T05:26:10.800Z,1592.00
2022-08-26T05:27:11.787Z,1624.00
2022-08-26T05:28:10.779Z,1632.00
2022-08-26T05:29:10.751Z,1620.00
2022-08-26T05:30:10.851Z,1600.00
2022-08-26T05:31:10.793Z,1584.00
2022-08-26T05:32:11.279Z,1556.00
2022-08-26T05:33:10.900Z,1552.00
2022-08-26T05:34:13.386Z,1568.00
2022-08-26T05:35:10.724Z,1592.00
2022-08-26T05:36:10.710Z,1628.00
2022-08-26T05:37:10.738Z,1656.00
2022-08-26T05:38:12.822Z,1704.00
2022-08-26T05:39:11.697Z,1764.00
2022-08-26T05:40:10.744Z,1844.00
2022-08-26T05:41:10.697Z,1936.00
2022-08-26T05:42:10.761Z,2032.00
2022-08-26T05:43:10.687Z,2132.00
2022-08-26T05:44:10.683Z,2212.00
2022-08-26T05:45:10.658Z,2288.00
2022-08-26T05:46:10.729Z,2400.00
2022-08-26T05:47:10.669Z,2536.00
2022-08-26T05:48:10.670Z,2664.00
2022-08-26T05:49:12.587Z,2784.00
2022-08-26T05:50:10.624Z,2884.00
2022-08-26T05:51:10.618Z,2956.00
2022-08-26T05:52:10.644Z,2996.00
2022-08-26T05:53:10.615Z,3048.00
2022-08-26T05:54:10.716Z,3116.00
2022-08-26T05:55:10.599Z,3192.00
2022-08-26T05:56:10.614Z,3304.00
2022-08-26T05:57:10.603Z,3392.00
2022-08-26T05:58:10.591Z,3476.00
2022-08-26T05:59:14.206Z,3576.00
2022-08-26T06:00:10.573Z,3672.00
2022-08-26T06:01:10.647Z,3768.00
2022-08-26T06:02:10.575Z,3904.00
2022-08-26T06:03:10.943Z,3940.00
2022-08-26T06:04:10.556Z,3936.00
2022-08-26T06:05:10.552Z,3976.00
2022-08-26T06:06:10.782Z,4000.00
2022-08-26T06:07:12.111Z,4020.00
2022-08-26T06:08:10.535Z,4044.00
2022-08-26T06:09:11.142Z,4028.00
2022-08-26T06:10:30.961Z,4012.00
2022-08-26T06:11:18.531Z,4008.00
2022-08-26T06:12:11.620Z,3980.00
2022-08-26T06:13:12.121Z,3988.00
2022-08-26T06:14:10.491Z,3976.00
2022-08-26T06:15:10.487Z,3980.00
2022-08-26T06:16:10.562Z,4016.00
2022-08-26T06:17:11.379Z,4040.00
2022-08-26T06:18:10.498Z,4024.00
2022-08-26T06:19:11.650Z,3984.00
2022-08-26T06:20:11.507Z,3984.00
2022-08-26T06:21:10.440Z,4016.00
2022-08-26T06:22:10.450Z,4076.00
2022-08-26T06:23:10.510Z,3912.00
2022-08-26T06:24:11.449Z,3872.00
2022-08-26T06:25:10.468Z,3884.00
2022-08-26T06:26:11.074Z,3932.00
2022-08-26T06:27:11.364Z,3992.00
2022-08-26T06:28:10.415Z,4088.00
2022-08-26T06:29:10.435Z,4112.00
2022-08-26T06:30:10.417Z,4172.00
2022-08-26T06:31:10.462Z,4332.00
2022-08-26T06:32:10.380Z,4628.00
2022-08-26T06:33:10.471Z,5016.00
2022-08-26T06:34:10.976Z,5340.00
2022-08-26T06:35:12.071Z,5952.00
2022-08-26T06:36:10.363Z,5048.00
2022-08-26T06:37:10.363Z,4964.00
2022-08-26T06:38:10.361Z,4960.00
2022-08-26T06:39:10.352Z,5168.00
2022-08-26T06:40:10.444Z,5544.00
2022-08-26T06:41:10.335Z,6088.00
2022-08-26T06:42:11.094Z,6184.00
2022-08-26T06:43:10.320Z,6680.00
2022-08-26T06:44:10.326Z,7248.00
2022-08-26T06:45:10.438Z,6460.00
2022-08-26T06:46:10.328Z,6808.00
2022-08-26T06:47:10.321Z,7336.00
2022-08-26T06:48:10.317Z,19136.00
2022-08-26T06:49:10.288Z,20960.00
2022-08-26T06:50:10.275Z,23552.00
2022-08-26T06:51:11.331Z,23008.00
2022-08-26T06:52:10.292Z,10752.00
2022-08-26T06:53:10.267Z,13584.00
2022-08-26T06:54:10.273Z,11760.00
2022-08-26T06:55:10.798Z,16064.00
2022-08-26T06:56:10.275Z,20928.00
2022-08-26T06:57:10.277Z,20256.00
2022-08-26T06:58:10.259Z,21280.00
2022-08-26T06:59:10.239Z,22464.00
2022-08-26T07:00:10.240Z,22688.00
2022-08-26T07:01:11.630Z,23008.00
2022-08-26T07:02:10.420Z,22752.00
2022-08-26T07:03:11.482Z,23136.00
2022-08-26T07:04:10.697Z,23520.00
2022-08-26T07:05:10.217Z,21440.00
2022-08-26T07:06:10.218Z,27072.00
2022-08-26T07:07:10.227Z,28160.00
2022-08-26T07:08:10.198Z,26048.00
2022-08-26T07:09:10.231Z,27104.00
2022-08-26T07:10:10.175Z,29088.00
2022-08-26T07:11:10.210Z,34240.00
2022-08-26T07:12:10.202Z,35712.00
2022-08-26T07:13:10.157Z,35488.00
2022-08-26T07:14:10.157Z,38752.00
2022-08-26T07:15:11.155Z,37184.00
2022-08-26T07:16:10.183Z,29760.00
2022-08-26T07:17:13.852Z,24096.00
2022-08-26T07:18:10.136Z,22080.00
2022-08-26T07:19:10.796Z,20704.00
2022-08-26T07:20:10.134Z,19808.00
2022-08-26T07:21:10.125Z,21664.00
2022-08-26T07:22:10.137Z,23680.00
2022-08-26T07:23:10.146Z,24960.00
2022-08-26T07:24:10.979Z,25504.00
2022-08-26T07:25:10.098Z,26144.00
2022-08-26T07:26:10.107Z,26944.00
2022-08-26T07:27:10.105Z,21760.00
2022-08-26T07:28:10.224Z,24992.00
2022-08-26T07:29:10.099Z,27488.00
2022-08-26T07:30:10.092Z,27552.00
2022-08-26T07:31:10.115Z,29440.00
2022-08-26T07:32:10.065Z,29408.00
2022-08-26T07:33:10.075Z,28928.00
2022-08-26T07:34:10.074Z,28960.00
2022-08-26T07:35:10.067Z,29088.00
2022-08-26T07:36:10.045Z,29600.00
2022-08-26T07:37:10.047Z,30656.00
2022-08-26T07:38:10.042Z,34560.00
2022-08-26T07:39:10.060Z,39552.00
2022-08-26T07:40:10.113Z,41088.00
2022-08-26T07:41:10.022Z,37120.00
2022-08-26T07:42:10.020Z,44704.00
2022-08-26T07:43:10.183Z,48480.00
2022-08-26T07:44:10.022Z,50016.00
2022-08-26T07:45:09.987Z,51456.00
2022-08-26T07:46:13.323Z,55584.00
2022-08-26T07:47:25.136Z,58016.00
2022-08-26T07:48:09.975Z,57920.00
2022-08-26T07:49:10.035Z,41056.00
2022-08-26T07:50:10.008Z,25664.00
2022-08-26T07:51:09.979Z,52800.00
2022-08-26T07:52:09.979Z,37248.00
2022-08-26T07:53:10.817Z,51648.00
2022-08-26T07:54:09.969Z,50048.00
2022-08-26T07:55:10.935Z,49856.00
2022-08-26T07:56:09.938Z,41472.00
2022-08-26T07:57:09.932Z,32032.00
2022-08-26T07:58:09.946Z,39456.00
2022-08-26T07:59:13.593Z,13548.00
2022-08-26T08:00:09.931Z,12704.00
2022-08-26T08:01:10.122Z,12896.00
2022-08-26T08:02:09.915Z,13544.00
2022-08-26T08:03:10.122Z,14988.00
2022-08-26T08:04:10.266Z,37856.00
2022-08-26T08:05:09.970Z,52096.00
2022-08-26T08:06:09.929Z,51136.00
2022-08-26T08:07:11.508Z,52832.00
2022-08-26T08:08:26.811Z,54624.00
2022-08-26T08:09:10.880Z,51520.00
2022-08-26T08:10:11.630Z,33120.00
2022-08-26T08:11:10.889Z,13340.00
2022-08-26T08:12:14.156Z,10988.00
2022-08-26T08:13:09.995Z,9512.00
2022-08-26T08:14:11.758Z,8732.00
2022-08-26T08:15:09.843Z,8256.00
2022-08-26T08:16:12.682Z,8048.00
2022-08-26T08:17:09.930Z,10076.00
2022-08-26T08:18:15.654Z,8132.00
2022-08-26T08:19:09.828Z,8592.00
2022-08-26T08:20:09.815Z,9484.00
2022-08-26T08:21:23.783Z,10824.00
2022-08-26T08:22:17.200Z,10932.00
2022-08-26T08:23:10.804Z,13428.00
2022-08-26T08:24:09.794Z,26272.00
2022-08-26T08:25:10.436Z,31680.00
2022-08-26T08:26:09.816Z,14500.00
2022-08-26T08:27:09.799Z,15808.00
2022-08-26T08:28:10.141Z,16032.00
2022-08-26T08:29:09.784Z,9680.00
2022-08-26T08:30:09.789Z,8436.00
2022-08-26T08:31:09.821Z,8184.00
2022-08-26T08:32:11.582Z,8284.00
2022-08-26T08:33:10.789Z,9320.00
2022-08-26T08:34:09.757Z,14204.00
2022-08-26T08:35:11.074Z,13408.00
2022-08-26T08:36:09.758Z,10312.00
2022-08-26T08:37:10.905Z,17760.00
2022-08-26T08:38:09.872Z,6432.00
2022-08-26T08:39:09.855Z,5564.00
2022-08-26T08:40:09.789Z,5296.00
2022-08-26T08:41:09.732Z,5272.00
2022-08-26T08:42:09.722Z,5184.00
2022-08-26T08:43:10.015Z,5080.00
2022-08-26T08:44:09.827Z,5000.00
2022-08-26T08:45:09.690Z,4880.00
2022-08-26T08:46:09.777Z,4828.00
2022-08-26T08:47:09.705Z,4872.00
2022-08-26T08:48:09.892Z,5012.00
2022-08-26T08:49:09.698Z,5200.00
2022-08-26T08:50:09.801Z,5308.00
2022-08-26T08:51:09.681Z,5368.00
2022-08-26T08:52:09.658Z,5344.00
2022-08-26T08:53:09.666Z,5260.00
2022-08-26T08:54:09.665Z,5200.00
2022-08-26T08:55:11.138Z,5308.00
2022-08-26T08:56:09.663Z,5484.00
2022-08-26T08:57:09.643Z,5780.00
2022-08-26T08:58:09.795Z,6052.00
2022-08-26T08:59:09.653Z,6128.00
2022-08-26T09:00:09.639Z,6140.00
2022-08-26T09:01:09.885Z,6164.00
2022-08-26T09:02:09.695Z,6220.00
2022-08-26T09:03:09.651Z,6256.00
2022-08-26T09:04:09.630Z,6188.00
2022-08-26T09:05:09.601Z,6040.00
2022-08-26T09:06:10.946Z,5944.00
2022-08-26T09:07:09.739Z,5856.00
2022-08-26T09:08:11.081Z,5952.00
2022-08-26T09:09:09.668Z,6140.00
2022-08-26T09:10:09.646Z,6464.00
2022-08-26T09:11:09.654Z,6824.00
2022-08-26T09:12:09.756Z,7232.00
2022-08-26T09:13:09.591Z,7600.00
2022-08-26T09:14:10.634Z,7716.00
2022-08-26T09:15:09.619Z,7788.00
2022-08-26T09:16:10.144Z,7888.00
2022-08-26T09:17:09.840Z,8124.00
2022-08-26T09:18:10.743Z,8408.00
2022-08-26T09:19:09.546Z,8500.00
2022-08-26T09:20:09.536Z,8624.00
2022-08-26T09:21:09.535Z,8984.00
2022-08-26T09:22:09.926Z,9456.00
2022-08-26T09:23:09.782Z,9904.00
2022-08-26T09:24:11.235Z,10452.00
2022-08-26T09:25:11.176Z,11140.00
2022-08-26T09:26:09.588Z,11788.00
2022-08-26T09:27:11.475Z,12292.00
2022-08-26T09:28:09.808Z,12768.00
2022-08-26T09:29:09.509Z,13404.00
2022-08-26T09:30:11.530Z,13732.00
2022-08-26T09:31:11.457Z,13324.00
2022-08-26T09:32:42.871Z,12896.00
2022-08-26T09:33:11.104Z,12868.00
2022-08-26T09:34:09.472Z,12900.00
2022-08-26T09:35:09.454Z,12640.00
2022-08-26T09:36:09.459Z,12592.00
2022-08-26T09:37:09.448Z,13060.00
2022-08-26T09:38:12.043Z,13824.00
2022-08-26T09:39:09.559Z,14440.00
2022-08-26T09:40:09.446Z,14592.00
2022-08-26T09:41:09.419Z,14844.00
2022-08-26T09:42:09.680Z,15396.00
2022-08-26T09:43:09.414Z,16408.00
2022-08-26T09:44:09.430Z,17600.00
2022-08-26T09:45:10.392Z,18720.00
2022-08-26T09:46:09.454Z,20608.00
2022-08-26T09:47:09.409Z,30624.00
2022-08-26T09:48:09.486Z,24320.00
2022-08-26T09:49:09.399Z,30240.00
2022-08-26T09:50:09.794Z,39616.00
2022-08-26T09:51:09.371Z,28864.00
2022-08-26T09:52:09.373Z,25664.00
2022-08-26T09:53:10.007Z,25152.00
2022-08-26T09:54:09.362Z,21600.00
2022-08-26T09:55:09.354Z,20032.00
2022-08-26T09:56:09.350Z,22560.00
2022-08-26T09:57:09.351Z,55008.00
2022-08-26T09:58:09.432Z,38944.00
2022-08-26T09:59:10.892Z,53024.00
2022-08-26T10:00:09.329Z,54656.00
2022-08-26T10:01:09.401Z,56000.00
2022-08-26T10:02:12.263Z,58848.00
2022-08-26T10:03:09.645Z,58816.00
2022-08-26T10:04:09.332Z,55648.00
2022-08-26T10:05:09.871Z,57344.00
2022-08-26T10:06:09.318Z,52512.00
2022-08-26T10:07:09.296Z,42304.00
2022-08-26T10:08:09.302Z,33312.00
2022-08-26T10:09:09.785Z,25504.00
2022-08-26T10:10:09.278Z,22944.00
2022-08-26T10:11:09.277Z,21632.00
2022-08-26T10:12:09.381Z,20544.00
2022-08-26T10:13:09.449Z,19808.00
2022-08-26T10:14:09.249Z,19168.00
2022-08-26T10:15:09.263Z,18688.00
2022-08-26T10:16:10.729Z,18240.00
2022-08-26T10:17:09.353Z,17920.00
2022-08-26T10:18:09.487Z,17632.00
2022-08-26T10:19:09.224Z,17248.00
2022-08-26T10:20:22.730Z,16800.00
2022-08-26T10:21:09.237Z,16256.00
2022-08-26T10:22:09.225Z,15420.00
2022-08-26T10:23:09.331Z,15384.00
2022-08-26T10:24:11.413Z,15872.00
2022-08-26T10:25:09.184Z,15124.00
2022-08-26T10:26:09.194Z,14660.00
2022-08-26T10:27:09.188Z,13704.00
2022-08-26T10:28:09.474Z,12936.00
2022-08-26T10:29:09.204Z,11856.00
2022-08-26T10:30:09.165Z,10720.00
2022-08-26T10:31:09.156Z,9872.00
2022-08-26T10:32:09.199Z,9208.00
2022-08-26T10:33:09.279Z,8560.00
2022-08-26T10:34:09.186Z,7920.00
2022-08-26T10:35:09.157Z,7352.00
2022-08-26T10:36:09.143Z,6880.00
2022-08-26T10:37:16.002Z,6476.00
2022-08-26T10:38:10.449Z,6188.00
2022-08-26T10:39:09.158Z,5940.00
2022-08-26T10:40:09.158Z,5740.00
2022-08-26T10:41:10.364Z,5580.00
2022-08-26T10:42:09.106Z,5448.00
2022-08-26T10:43:11.407Z,5344.00
2022-08-26T10:44:10.120Z,5260.00
2022-08-26T10:45:11.895Z,5188.00
2022-08-26T10:46:09.131Z,5124.00
2022-08-26T10:47:09.086Z,5076.00
2022-08-26T10:48:09.256Z,5040.00
2022-08-26T10:49:09.075Z,5008.00
2022-08-26T10:50:09.083Z,4980.00
2022-08-26T10:51:09.072Z,4944.00
2022-08-26T10:52:15.162Z,4908.00
2022-08-26T10:53:10.044Z,4880.00
2022-08-26T10:54:09.065Z,4856.00
2022-08-26T10:55:09.147Z,4844.00
2022-08-26T10:56:18.644Z,4832.00
2022-08-26T10:57:10.025Z,4836.00
2022-08-26T10:58:09.272Z,4840.00
2022-08-26T10:59:10.376Z,4844.00
2022-08-26T11:00:09.008Z,4856.00
2022-08-26T11:01:10.199Z,4868.00
2022-08-26T11:02:09.000Z,4880.00
2022-08-26T11:03:09.556Z,4896.00
2022-08-26T11:04:09.059Z,4908.00
2022-08-26T11:05:09.004Z,4912.00
2022-08-26T11:06:09.007Z,4916.00
2022-08-26T11:07:08.976Z,4916.00
2022-08-26T11:08:09.171Z,4916.00
2022-08-26T11:09:08.962Z,4924.00
2022-08-26T11:10:09.986Z,4944.00
2022-08-26T11:11:08.960Z,4968.00
2022-08-26T11:12:10.173Z,4996.00
2022-08-26T11:13:09.085Z,5020.00
2022-08-26T11:14:08.960Z,5052.00
2022-08-26T11:15:08.936Z,5088.00
2022-08-26T11:16:08.994Z,5124.00
2022-08-26T11:17:08.959Z,5160.00
2022-08-26T11:18:08.973Z,5184.00
2022-08-26T11:19:08.919Z,5220.00
2022-08-26T11:20:13.466Z,5240.00
2022-08-26T11:21:10.341Z,5260.00
2022-08-26T11:22:08.916Z,5288.00
2022-08-26T11:23:08.937Z,5296.00
2022-08-26T11:24:08.893Z,5312.00
2022-08-26T11:25:11.469Z,5292.00
2022-08-26T11:26:08.907Z,5268.00
2022-08-26T11:27:08.980Z,5232.00
2022-08-26T11:28:09.067Z,5180.00
2022-08-26T11:29:13.217Z,5116.00
2022-08-26T11:30:09.076Z,5052.00
2022-08-26T11:31:08.925Z,4976.00
2022-08-26T11:32:08.857Z,4904.00
2022-08-26T11:33:09.065Z,4844.00
2022-08-26T11:34:10.944Z,4776.00
2022-08-26T11:35:08.855Z,4720.00
2022-08-26T11:36:12.479Z,4664.00
2022-08-26T11:37:08.862Z,4596.00
2022-08-26T11:38:09.002Z,4528.00
2022-08-26T11:39:08.929Z,4476.00
2022-08-26T11:40:08.864Z,4440.00
2022-08-26T11:41:08.815Z,4404.00
2022-08-26T11:42:08.818Z,4372.00
2022-08-26T11:43:08.776Z,4360.00
2022-08-26T11:44:08.780Z,4352.00
2022-08-26T11:45:08.790Z,4320.00
2022-08-26T11:46:09.240Z,4292.00
2022-08-26T11:47:11.463Z,4276.00
2022-08-26T11:48:08.948Z,4284.00
2022-08-26T11:49:08.813Z,4332.00
2022-08-26T11:50:08.863Z,4412.00
2022-08-26T11:51:08.741Z,4508.00
2022-08-26T11:52:08.746Z,4608.00
2022-08-26T11:53:08.745Z,4692.00
2022-08-26T11:54:09.347Z,4752.00
2022-08-26T11:55:08.735Z,4788.00
2022-08-26T11:56:08.841Z,4800.00
2022-08-26T11:57:11.693Z,4820.00
2022-08-26T11:58:08.805Z,4872.00
2022-08-26T11:59:08.760Z,4956.00
2022-08-26T12:00:10.812Z,5056.00
2022-08-26T12:01:09.826Z,5180.00
2022-08-26T12:02:08.709Z,5316.00
2022-08-26T12:03:08.912Z,5444.00
2022-08-26T12:04:08.770Z,5548.00
2022-08-26T12:05:08.679Z,5632.00
2022-08-26T12:06:08.672Z,5712.00
2022-08-26T12:07:09.779Z,5800.00
2022-08-26T12:08:08.876Z,5876.00
2022-08-26T12:09:08.705Z,5976.00
2022-08-26T12:10:08.643Z,6076.00
2022-08-26T12:11:08.656Z,6180.00
2022-08-26T12:12:08.761Z,6296.00
2022-08-26T12:13:08.629Z,6420.00
2022-08-26T12:14:08.617Z,6552.00
2022-08-26T12:15:08.609Z,6696.00
2022-08-26T12:16:08.663Z,6856.00
2022-08-26T12:17:08.607Z,7032.00
2022-08-26T12:18:08.700Z,7220.00
2022-08-26T12:19:08.600Z,7416.00
2022-08-26T12:20:08.589Z,7616.00
2022-08-26T12:21:08.596Z,7832.00
2022-08-26T12:22:08.582Z,8052.00
2022-08-26T12:23:08.711Z,8300.00
2022-08-26T12:24:08.562Z,8572.00
2022-08-26T12:25:08.575Z,8900.00